Benton, Wisconsin
Current Conditions -  °F | °C
As of 2:55 AM on Friday 24 Oct 2014 (Local Time) from KPVB Reporting Station
Overcast Overcast  
Wind Chill: 50°   Ceiling: 300
Heat Index: 50°   Visibility: 4mi
Dew Point: 49°   Wind: 8mph
Humidity: 97%   Direction: 270°W
Pressure: 30.06"   Gusts: NA
Location:  42.57°N, 90.38°W
Report Text: KPVB 240755Z AUTO 27007KT 4SM OVC003 10/10 A3006 RMK AO1 T01010097
Loading
Personal Weather Stations






























Interactive Weather Map
Tropical Storm Tracking
New forecast layout! Learn more

10-Day Weather Forecast

Advertisements
Track Severe Weather on mobile